sensor_id;sensor_type;location;lat;lon;timestamp;pressure;altitude;pressure_sealevel;temperature;humidity
29815;BME280;16708;50.426;7.664;2023-02-23T00:01:10;983.65;;;8.87;100.00
29815;BME280;16708;50.426;7.664;2023-02-23T00:06:03;983.62;;;8.88;100.00
29815;BME280;16708;50.426;7.664;2023-02-23T00:10:58;983.62;;;8.88;100.00
29815;BME280;16708;50.426;7.664;2023-02-23T00:15:51;983.63;;;8.90;100.00
29815;BME280;16708;50.426;7.664;2023-02-23T00:20:45;983.56;;;8.87;100.00
29815;BME280;16708;50.426;7.664;2023-02-23T00:25:38;983.58;;;8.88;100.00
29815;BME280;16708;50.426;7.664;2023-02-23T00:30:32;983.59;;;8.88;100.00
29815;BME280;16708;50.426;7.664;2023-02-23T00:35:26;983.50;;;8.71;100.00
29815;BME280;16708;50.426;7.664;2023-02-23T00:40:20;983.55;;;8.71;100.00
29815;BME280;16708;50.426;7.664;2023-02-23T00:45:14;983.40;;;8.68;100.00
29815;BME280;16708;50.426;7.664;2023-02-23T00:50:08;983.47;;;8.72;100.00
29815;BME280;16708;50.426;7.664;2023-02-23T00:55:05;983.42;;;8.68;100.00
29815;BME280;16708;50.426;7.664;2023-02-23T00:59:56;983.51;;;8.72;100.00
29815;BME280;16708;50.426;7.664;2023-02-23T01:04:50;983.43;;;8.72;100.00
29815;BME280;16708;50.426;7.664;2023-02-23T01:09:44;983.39;;;8.72;100.00
29815;BME280;16708;50.426;7.664;2023-02-23T01:14:39;983.40;;;8.74;100.00
29815;BME280;16708;50.426;7.664;2023-02-23T01:19:30;983.42;;;8.71;100.00
29815;BME280;16708;50.426;7.664;2023-02-23T01:24:24;983.43;;;8.68;100.00
29815;BME280;16708;50.426;7.664;2023-02-23T01:29:18;983.43;;;8.59;100.00
29815;BME280;16708;50.426;7.664;2023-02-23T01:34:12;983.39;;;8.62;100.00
29815;BME280;16708;50.426;7.664;2023-02-23T01:39:06;983.43;;;8.67;100.00
29815;BME280;16708;50.426;7.664;2023-02-23T01:48:54;983.41;;;8.70;100.00
29815;BME280;16708;50.426;7.664;2023-02-23T01:53:48;983.37;;;8.66;100.00
29815;BME280;16708;50.426;7.664;2023-02-23T01:58:42;983.43;;;8.68;100.00
29815;BME280;16708;50.426;7.664;2023-02-23T02:03:35;983.40;;;8.65;100.00
29815;BME280;16708;50.426;7.664;2023-02-23T02:08:29;983.34;;;8.57;100.00
29815;BME280;16708;50.426;7.664;2023-02-23T02:13:20;983.34;;;8.62;100.00
29815;BME280;16708;50.426;7.664;2023-02-23T02:37:50;983.23;;;8.67;100.00
29815;BME280;16708;50.426;7.664;2023-02-23T02:42:44;983.12;;;8.64;100.00
29815;BME280;16708;50.426;7.664;2023-02-23T02:47:38;983.13;;;8.66;100.00
29815;BME280;16708;50.426;7.664;2023-02-23T02:52:30;983.12;;;8.64;100.00
29815;BME280;16708;50.426;7.664;2023-02-23T02:57:24;983.10;;;8.64;100.00
29815;BME280;16708;50.426;7.664;2023-02-23T03:07:13;982.98;;;8.60;100.00
29815;BME280;16708;50.426;7.664;2023-02-23T03:12:07;983.02;;;8.61;100.00
29815;BME280;16708;50.426;7.664;2023-02-23T03:21:54;983.05;;;8.64;100.00
29815;BME280;16708;50.426;7.664;2023-02-23T03:26:48;983.01;;;8.65;100.00
29815;BME280;16708;50.426;7.664;2023-02-23T03:31:42;983.04;;;8.59;100.00
29815;BME280;16708;50.426;7.664;2023-02-23T03:36:36;983.05;;;8.63;100.00
29815;BME280;16708;50.426;7.664;2023-02-23T03:41:30;983.10;;;8.64;100.00
29815;BME280;16708;50.426;7.664;2023-02-23T03:46:24;983.12;;;8.67;100.00
29815;BME280;16708;50.426;7.664;2023-02-23T03:51:18;983.15;;;8.67;100.00
29815;BME280;16708;50.426;7.664;2023-02-23T03:56:12;983.14;;;8.64;100.00
29815;BME280;16708;50.426;7.664;2023-02-23T04:01:06;983.18;;;8.61;100.00
29815;BME280;16708;50.426;7.664;2023-02-23T04:05:59;983.08;;;8.63;100.00
29815;BME280;16708;50.426;7.664;2023-02-23T04:10:52;983.19;;;8.62;100.00
29815;BME280;16708;50.426;7.664;2023-02-23T04:15:47;983.23;;;8.58;100.00
29815;BME280;16708;50.426;7.664;2023-02-23T04:20:41;983.20;;;8.56;100.00
29815;BME280;16708;50.426;7.664;2023-02-23T04:25:35;983.24;;;8.60;100.00
29815;BME280;16708;50.426;7.664;2023-02-23T04:30:31;983.28;;;8.53;100.00
29815;BME280;16708;50.426;7.664;2023-02-23T04:35:22;983.34;;;8.50;100.00
29815;BME280;16708;50.426;7.664;2023-02-23T04:40:16;983.40;;;8.55;100.00
29815;BME280;16708;50.426;7.664;2023-02-23T04:45:10;983.30;;;8.57;100.00
29815;BME280;16708;50.426;7.664;2023-02-23T04:50:04;983.33;;;8.54;100.00
29815;BME280;16708;50.426;7.664;2023-02-23T04:54:58;983.34;;;8.52;100.00
29815;BME280;16708;50.426;7.664;2023-02-23T04:59:50;983.38;;;8.50;100.00
29815;BME280;16708;50.426;7.664;2023-02-23T05:04:44;983.35;;;8.46;100.00
29815;BME280;16708;50.426;7.664;2023-02-23T05:09:38;983.37;;;8.46;100.00
29815;BME280;16708;50.426;7.664;2023-02-23T05:14:33;983.36;;;8.40;100.00
29815;BME280;16708;50.426;7.664;2023-02-23T05:19:27;983.31;;;8.45;100.00
29815;BME280;16708;50.426;7.664;2023-02-23T05:24:20;983.43;;;8.46;100.00
29815;BME280;16708;50.426;7.664;2023-02-23T05:29:15;983.44;;;8.49;100.00
29815;BME280;16708;50.426;7.664;2023-02-23T05:34:09;983.44;;;8.45;100.00
29815;BME280;16708;50.426;7.664;2023-02-23T05:39:04;983.40;;;8.49;100.00
29815;BME280;16708;50.426;7.664;2023-02-23T05:43:54;983.40;;;8.43;100.00
29815;BME280;16708;50.426;7.664;2023-02-23T05:48:48;983.41;;;8.42;100.00
29815;BME280;16708;50.426;7.664;2023-02-23T05:53:42;983.49;;;8.37;100.00
29815;BME280;16708;50.426;7.664;2023-02-23T05:58:36;983.47;;;8.36;100.00
29815;BME280;16708;50.426;7.664;2023-02-23T06:03:31;983.51;;;8.34;100.00
29815;BME280;16708;50.426;7.664;2023-02-23T06:08:22;983.60;;;8.30;100.00
29815;BME280;16708;50.426;7.664;2023-02-23T06:13:17;983.55;;;8.36;100.00
29815;BME280;16708;50.426;7.664;2023-02-23T06:18:11;983.55;;;8.29;100.00
29815;BME280;16708;50.426;7.664;2023-02-23T06:23:03;983.57;;;8.37;100.00
29815;BME280;16708;50.426;7.664;2023-02-23T06:28:01;983.56;;;8.59;100.00
29815;BME280;16708;50.426;7.664;2023-02-23T06:32:51;983.65;;;8.66;100.00
29815;BME280;16708;50.426;7.664;2023-02-23T06:37:46;983.63;;;8.65;100.00
29815;BME280;16708;50.426;7.664;2023-02-23T06:42:40;983.68;;;8.54;100.00
29815;BME280;16708;50.426;7.664;2023-02-23T06:47:34;983.73;;;8.49;100.00
29815;BME280;16708;50.426;7.664;2023-02-23T06:52:29;983.81;;;8.47;100.00
29815;BME280;16708;50.426;7.664;2023-02-23T06:57:21;983.84;;;8.41;100.00
29815;BME280;16708;50.426;7.664;2023-02-23T07:02:14;983.90;;;8.45;100.00
29815;BME280;16708;50.426;7.664;2023-02-23T07:07:08;983.88;;;8.39;100.00
29815;BME280;16708;50.426;7.664;2023-02-23T07:12:03;983.95;;;8.41;100.00
29815;BME280;16708;50.426;7.664;2023-02-23T07:16:57;984.04;;;8.39;100.00
29815;BME280;16708;50.426;7.664;2023-02-23T07:21:50;984.12;;;8.43;100.00
29815;BME280;16708;50.426;7.664;2023-02-23T07:26:44;984.16;;;8.47;100.00
29815;BME280;16708;50.426;7.664;2023-02-23T07:31:39;984.20;;;8.47;100.00
29815;BME280;16708;50.426;7.664;2023-02-23T07:36:33;984.21;;;8.50;100.00
29815;BME280;16708;50.426;7.664;2023-02-23T07:41:28;984.35;;;8.52;100.00
29815;BME280;16708;50.426;7.664;2023-02-23T07:46:22;984.35;;;8.69;100.00
29815;BME280;16708;50.426;7.664;2023-02-23T07:51:16;984.38;;;8.50;100.00
29815;BME280;16708;50.426;7.664;2023-02-23T07:56:11;984.36;;;8.51;100.00
29815;BME280;16708;50.426;7.664;2023-02-23T08:01:05;984.34;;;8.50;100.00
29815;BME280;16708;50.426;7.664;2023-02-23T08:05:57;984.36;;;8.55;100.00
29815;BME280;16708;50.426;7.664;2023-02-23T08:10:51;984.43;;;8.55;100.00
29815;BME280;16708;50.426;7.664;2023-02-23T08:15:45;984.42;;;8.48;100.00
29815;BME280;16708;50.426;7.664;2023-02-23T08:20:40;984.47;;;8.54;100.00
29815;BME280;16708;50.426;7.664;2023-02-23T08:25:34;984.46;;;8.62;100.00
29815;BME280;16708;50.426;7.664;2023-02-23T08:30:29;984.45;;;8.59;100.00
29815;BME280;16708;50.426;7.664;2023-02-23T08:35:23;984.53;;;8.55;100.00
29815;BME280;16708;50.426;7.664;2023-02-23T08:40:18;984.57;;;8.60;100.00
29815;BME280;16708;50.426;7.664;2023-02-23T08:45:12;984.58;;;8.72;100.00
29815;BME280;16708;50.426;7.664;2023-02-23T08:50:07;984.60;;;8.80;100.00
29815;BME280;16708;50.426;7.664;2023-02-23T08:55:01;984.64;;;8.79;100.00
29815;BME280;16708;50.426;7.664;2023-02-23T08:59:55;984.60;;;8.80;100.00
29815;BME280;16708;50.426;7.664;2023-02-23T09:04:49;984.64;;;8.84;100.00
29815;BME280;16708;50.426;7.664;2023-02-23T09:09:43;984.69;;;8.95;100.00
29815;BME280;16708;50.426;7.664;2023-02-23T09:14:37;984.65;;;8.87;100.00
29815;BME280;16708;50.426;7.664;2023-02-23T09:19:31;984.73;;;8.83;100.00
29815;BME280;16708;50.426;7.664;2023-02-23T09:24:26;984.75;;;8.66;100.00
29815;BME280;16708;50.426;7.664;2023-02-23T09:29:20;984.76;;;8.70;100.00
29815;BME280;16708;50.426;7.664;2023-02-23T09:34:15;984.85;;;8.74;100.00
29815;BME280;16708;50.426;7.664;2023-02-23T09:39:09;984.93;;;8.98;100.00
29815;BME280;16708;50.426;7.664;2023-02-23T09:44:03;984.93;;;9.28;100.00
29815;BME280;16708;50.426;7.664;2023-02-23T09:48:57;984.97;;;9.74;100.00
29815;BME280;16708;50.426;7.664;2023-02-23T09:53:50;984.97;;;9.89;100.00
29815;BME280;16708;50.426;7.664;2023-02-23T10:03:39;985.00;;;9.73;100.00
29815;BME280;16708;50.426;7.664;2023-02-23T10:23:16;985.08;;;9.27;100.00
29815;BME280;16708;50.426;7.664;2023-02-23T10:33:04;985.22;;;9.23;100.00
29815;BME280;16708;50.426;7.664;2023-02-23T10:37:59;985.21;;;9.23;100.00
29815;BME280;16708;50.426;7.664;2023-02-23T10:42:53;985.23;;;9.34;100.00
29815;BME280;16708;50.426;7.664;2023-02-23T10:47:47;985.20;;;9.19;100.00
29815;BME280;16708;50.426;7.664;2023-02-23T10:52:41;985.36;;;8.83;100.00
29815;BME280;16708;50.426;7.664;2023-02-23T10:57:35;985.35;;;8.74;100.00
29815;BME280;16708;50.426;7.664;2023-02-23T11:02:29;985.36;;;8.72;100.00
29815;BME280;16708;50.426;7.664;2023-02-23T11:17:12;985.40;;;9.83;100.00
29815;BME280;16708;50.426;7.664;2023-02-23T11:27:01;985.30;;;10.36;100.00
29815;BME280;16708;50.426;7.664;2023-02-23T11:36:50;985.20;;;10.60;100.00
29815;BME280;16708;50.426;7.664;2023-02-23T11:41:44;985.25;;;10.25;100.00
29815;BME280;16708;50.426;7.664;2023-02-23T11:46:39;985.25;;;10.12;100.00
29815;BME280;16708;50.426;7.664;2023-02-23T11:51:33;985.17;;;10.29;100.00
29815;BME280;16708;50.426;7.664;2023-02-23T11:56:28;985.11;;;10.05;100.00
29815;BME280;16708;50.426;7.664;2023-02-23T12:01:22;985.14;;;9.99;100.00
29815;BME280;16708;50.426;7.664;2023-02-23T12:06:17;985.06;;;10.13;100.00
29815;BME280;16708;50.426;7.664;2023-02-23T12:11:11;984.95;;;10.35;100.00
29815;BME280;16708;50.426;7.664;2023-02-23T12:16:03;985.06;;;10.08;100.00
29815;BME280;16708;50.426;7.664;2023-02-23T12:20:58;985.04;;;9.96;100.00
29815;BME280;16708;50.426;7.664;2023-02-23T12:30:45;985.03;;;10.02;100.00
29815;BME280;16708;50.426;7.664;2023-02-23T12:35:40;984.98;;;10.46;100.00
29815;BME280;16708;50.426;7.664;2023-02-23T12:40:34;984.93;;;10.62;100.00
29815;BME280;16708;50.426;7.664;2023-02-23T12:45:29;984.91;;;10.63;100.00
29815;BME280;16708;50.426;7.664;2023-02-23T12:50:20;984.82;;;10.30;100.00
29815;BME280;16708;50.426;7.664;2023-02-23T13:09:55;984.79;;;10.54;100.00
29815;BME280;16708;50.426;7.664;2023-02-23T13:19:44;984.68;;;10.27;100.00
29815;BME280;16708;50.426;7.664;2023-02-23T13:24:37;984.72;;;10.10;100.00
29815;BME280;16708;50.426;7.664;2023-02-23T13:29:31;984.72;;;9.78;100.00
29815;BME280;16708;50.426;7.664;2023-02-23T13:34:25;984.88;;;9.80;100.00
29815;BME280;16708;50.426;7.664;2023-02-23T13:49:06;984.85;;;9.85;100.00
29815;BME280;16708;50.426;7.664;2023-02-23T13:54:00;984.87;;;9.79;100.00
29815;BME280;16708;50.426;7.664;2023-02-23T13:58:54;984.84;;;9.76;100.00
29815;BME280;16708;50.426;7.664;2023-02-23T14:03:48;984.87;;;9.65;100.00
29815;BME280;16708;50.426;7.664;2023-02-23T14:08:42;984.87;;;9.62;100.00
29815;BME280;16708;50.426;7.664;2023-02-23T14:28:17;984.95;;;9.37;100.00
29815;BME280;16708;50.426;7.664;2023-02-23T14:33:11;984.86;;;9.29;100.00
29815;BME280;16708;50.426;7.664;2023-02-23T14:38:05;984.95;;;9.34;100.00
29815;BME280;16708;50.426;7.664;2023-02-23T14:42:59;984.97;;;9.27;100.00
29815;BME280;16708;50.426;7.664;2023-02-23T14:47:53;984.97;;;9.29;100.00
29815;BME280;16708;50.426;7.664;2023-02-23T14:57:41;984.96;;;9.38;100.00
29815;BME280;16708;50.426;7.664;2023-02-23T15:07:29;984.98;;;9.37;100.00
29815;BME280;16708;50.426;7.664;2023-02-23T15:12:21;985.00;;;9.24;100.00
29815;BME280;16708;50.426;7.664;2023-02-23T15:17:16;985.00;;;9.42;100.00
29815;BME280;16708;50.426;7.664;2023-02-23T15:22:10;984.91;;;9.33;100.00
29815;BME280;16708;50.426;7.664;2023-02-23T15:36:50;985.08;;;9.04;100.00
29815;BME280;16708;50.426;7.664;2023-02-23T15:41:44;985.15;;;8.89;100.00
29815;BME280;16708;50.426;7.664;2023-02-23T15:46:41;985.27;;;8.78;100.00
29815;BME280;16708;50.426;7.664;2023-02-23T15:51:32;985.15;;;8.68;100.00
29815;BME280;16708;50.426;7.664;2023-02-23T16:06:12;985.15;;;8.62;100.00
29815;BME280;16708;50.426;7.664;2023-02-23T16:11:06;985.17;;;8.46;100.00
29815;BME280;16708;50.426;7.664;2023-02-23T16:20:55;985.27;;;8.17;100.00
29815;BME280;16708;50.426;7.664;2023-02-23T16:25:49;985.32;;;8.06;100.00
29815;BME280;16708;50.426;7.664;2023-02-23T16:30:43;985.27;;;8.05;100.00
29815;BME280;16708;50.426;7.664;2023-02-23T16:35:36;985.22;;;7.88;100.00
29815;BME280;16708;50.426;7.664;2023-02-23T16:40:31;985.30;;;7.83;100.00
29815;BME280;16708;50.426;7.664;2023-02-23T16:45:25;985.21;;;7.70;100.00
29815;BME280;16708;50.426;7.664;2023-02-23T16:50:18;985.26;;;7.68;100.00
29815;BME280;16708;50.426;7.664;2023-02-23T16:55:12;985.33;;;7.69;100.00
29815;BME280;16708;50.426;7.664;2023-02-23T17:05:00;985.34;;;7.68;100.00
29815;BME280;16708;50.426;7.664;2023-02-23T17:09:54;985.46;;;7.58;100.00
29815;BME280;16708;50.426;7.664;2023-02-23T17:14:48;985.41;;;7.50;100.00
29815;BME280;16708;50.426;7.664;2023-02-23T17:19:43;985.52;;;7.46;100.00
29815;BME280;16708;50.426;7.664;2023-02-23T17:24:37;985.46;;;7.46;100.00
29815;BME280;16708;50.426;7.664;2023-02-23T17:29:31;985.41;;;7.38;100.00
29815;BME280;16708;50.426;7.664;2023-02-23T17:34:25;985.38;;;7.42;100.00
29815;BME280;16708;50.426;7.664;2023-02-23T17:39:20;985.42;;;7.24;100.00
29815;BME280;16708;50.426;7.664;2023-02-23T17:44:14;985.51;;;7.28;100.00
29815;BME280;16708;50.426;7.664;2023-02-23T17:49:07;985.40;;;7.29;100.00
29815;BME280;16708;50.426;7.664;2023-02-23T17:54:01;985.47;;;7.24;100.00
29815;BME280;16708;50.426;7.664;2023-02-23T17:58:56;985.47;;;7.19;100.00
29815;BME280;16708;50.426;7.664;2023-02-23T18:03:49;985.50;;;7.18;100.00
29815;BME280;16708;50.426;7.664;2023-02-23T18:08:43;985.46;;;7.22;100.00
29815;BME280;16708;50.426;7.664;2023-02-23T18:13:37;985.51;;;7.20;100.00
29815;BME280;16708;50.426;7.664;2023-02-23T18:18:31;985.48;;;7.23;100.00
29815;BME280;16708;50.426;7.664;2023-02-23T18:23:26;985.45;;;7.13;100.00
29815;BME280;16708;50.426;7.664;2023-02-23T18:28:18;985.56;;;7.12;100.00
29815;BME280;16708;50.426;7.664;2023-02-23T18:33:13;985.49;;;7.11;100.00
29815;BME280;16708;50.426;7.664;2023-02-23T18:38:05;985.52;;;7.12;100.00
29815;BME280;16708;50.426;7.664;2023-02-23T18:42:59;985.53;;;7.10;100.00
29815;BME280;16708;50.426;7.664;2023-02-23T18:47:53;985.55;;;7.12;100.00
29815;BME280;16708;50.426;7.664;2023-02-23T18:52:48;985.56;;;7.17;100.00
29815;BME280;16708;50.426;7.664;2023-02-23T18:57:42;985.46;;;7.10;100.00
29815;BME280;16708;50.426;7.664;2023-02-23T19:02:35;985.56;;;7.01;100.00
29815;BME280;16708;50.426;7.664;2023-02-23T19:07:29;985.54;;;7.11;100.00
29815;BME280;16708;50.426;7.664;2023-02-23T19:12:20;985.50;;;7.12;100.00
29815;BME280;16708;50.426;7.664;2023-02-23T19:17:14;985.54;;;7.13;100.00
29815;BME280;16708;50.426;7.664;2023-02-23T19:22:08;985.54;;;7.14;100.00
29815;BME280;16708;50.426;7.664;2023-02-23T19:27:03;985.57;;;7.10;100.00
29815;BME280;16708;50.426;7.664;2023-02-23T19:31:57;985.53;;;7.06;100.00
29815;BME280;16708;50.426;7.664;2023-02-23T19:36:52;985.57;;;7.02;100.00
29815;BME280;16708;50.426;7.664;2023-02-23T19:41:46;985.55;;;7.00;100.00
29815;BME280;16708;50.426;7.664;2023-02-23T19:46:40;985.63;;;6.91;100.00
29815;BME280;16708;50.426;7.664;2023-02-23T19:51:34;985.61;;;6.89;100.00
29815;BME280;16708;50.426;7.664;2023-02-23T19:56:29;985.59;;;6.92;100.00
29815;BME280;16708;50.426;7.664;2023-02-23T20:01:21;985.63;;;6.88;100.00
29815;BME280;16708;50.426;7.664;2023-02-23T20:06:15;985.70;;;6.90;100.00
29815;BME280;16708;50.426;7.664;2023-02-23T20:11:09;985.64;;;6.82;100.00
29815;BME280;16708;50.426;7.664;2023-02-23T20:16:03;985.74;;;6.85;100.00
29815;BME280;16708;50.426;7.664;2023-02-23T20:20:58;985.79;;;6.79;100.00
29815;BME280;16708;50.426;7.664;2023-02-23T20:25:51;985.82;;;6.81;100.00
29815;BME280;16708;50.426;7.664;2023-02-23T20:30:45;985.98;;;6.78;100.00
29815;BME280;16708;50.426;7.664;2023-02-23T20:35:39;985.96;;;6.64;100.00
29815;BME280;16708;50.426;7.664;2023-02-23T20:40:33;985.94;;;6.63;100.00
29815;BME280;16708;50.426;7.664;2023-02-23T20:45:27;986.00;;;6.66;100.00
29815;BME280;16708;50.426;7.664;2023-02-23T20:50:22;985.96;;;6.66;100.00
29815;BME280;16708;50.426;7.664;2023-02-23T20:55:17;985.99;;;6.61;100.00
29815;BME280;16708;50.426;7.664;2023-02-23T21:00:11;985.95;;;6.59;100.00
29815;BME280;16708;50.426;7.664;2023-02-23T21:05:05;985.93;;;6.47;100.00
29815;BME280;16708;50.426;7.664;2023-02-23T21:10:00;985.90;;;6.54;100.00
29815;BME280;16708;50.426;7.664;2023-02-23T21:14:54;985.93;;;6.53;100.00
29815;BME280;16708;50.426;7.664;2023-02-23T21:19:48;985.90;;;6.50;100.00
29815;BME280;16708;50.426;7.664;2023-02-23T21:24:42;985.86;;;6.44;100.00
29815;BME280;16708;50.426;7.664;2023-02-23T21:29:36;985.87;;;6.52;100.00
29815;BME280;16708;50.426;7.664;2023-02-23T21:34:31;985.83;;;6.55;100.00
29815;BME280;16708;50.426;7.664;2023-02-23T21:39:25;985.77;;;6.53;100.00
29815;BME280;16708;50.426;7.664;2023-02-23T21:44:19;985.78;;;6.50;100.00
29815;BME280;16708;50.426;7.664;2023-02-23T21:49:14;985.71;;;6.51;100.00
29815;BME280;16708;50.426;7.664;2023-02-23T21:54:08;985.82;;;6.59;100.00
29815;BME280;16708;50.426;7.664;2023-02-23T21:59:01;985.64;;;6.53;100.00
29815;BME280;16708;50.426;7.664;2023-02-23T22:03:56;985.76;;;6.49;100.00
29815;BME280;16708;50.426;7.664;2023-02-23T22:08:50;985.60;;;6.43;100.00
29815;BME280;16708;50.426;7.664;2023-02-23T22:13:44;985.62;;;6.47;100.00
29815;BME280;16708;50.426;7.664;2023-02-23T22:18:38;985.59;;;6.47;100.00
29815;BME280;16708;50.426;7.664;2023-02-23T22:23:32;985.59;;;6.47;100.00
29815;BME280;16708;50.426;7.664;2023-02-23T22:28:27;985.57;;;6.47;100.00
29815;BME280;16708;50.426;7.664;2023-02-23T22:33:21;985.51;;;6.49;100.00
29815;BME280;16708;50.426;7.664;2023-02-23T22:38:16;985.49;;;6.47;100.00
29815;BME280;16708;50.426;7.664;2023-02-23T22:43:10;985.44;;;6.41;100.00
29815;BME280;16708;50.426;7.664;2023-02-23T22:48:07;985.41;;;6.41;100.00
29815;BME280;16708;50.426;7.664;2023-02-23T22:52:58;985.36;;;6.34;100.00
29815;BME280;16708;50.426;7.664;2023-02-23T22:57:52;985.32;;;6.40;100.00
29815;BME280;16708;50.426;7.664;2023-02-23T23:02:47;985.28;;;6.40;100.00
29815;BME280;16708;50.426;7.664;2023-02-23T23:07:41;985.18;;;6.38;100.00
29815;BME280;16708;50.426;7.664;2023-02-23T23:12:36;985.13;;;6.38;100.00
29815;BME280;16708;50.426;7.664;2023-02-23T23:17:30;985.16;;;6.36;100.00
29815;BME280;16708;50.426;7.664;2023-02-23T23:22:24;985.12;;;6.34;100.00
29815;BME280;16708;50.426;7.664;2023-02-23T23:27:19;985.01;;;6.33;100.00
29815;BME280;16708;50.426;7.664;2023-02-23T23:32:13;984.91;;;6.35;100.00
29815;BME280;16708;50.426;7.664;2023-02-23T23:37:07;984.85;;;6.32;100.00
29815;BME280;16708;50.426;7.664;2023-02-23T23:42:01;984.83;;;6.27;100.00
29815;BME280;16708;50.426;7.664;2023-02-23T23:46:55;984.78;;;6.27;100.00
29815;BME280;16708;50.426;7.664;2023-02-23T23:51:49;984.81;;;6.20;100.00
29815;BME280;16708;50.426;7.664;2023-02-23T23:56:43;984.83;;;6.27;100.00
